Maxwell, NM (87728)

9:27 AM MDT on October 22, 2014 (GMT -0600)
Raton Municipal-Crews | Change Station
CLOSE
Current Station
Airport
Location: Raton,
Elevation: 6352 ft
Nearby Weather Stations

Elev 6352 ft 36.74 °N, 104.50 °W | Updated 34 minutes ago

Partly Cloudy
Partly Cloudy
52 °F
Feels Like 52 °F
N
7
Wind Variable Wind from ENE

Today
High -- | Low -- °F
--% Chance of Precip.
Yesterday
High -- | Low -- °F
Precip. -- in
7:11 AM 6:12 PM
Waning Crescent, 2% visible
Pressure 30.01 in
Visibility 10.0 miles
Clouds Clear
Dew Point 47 °F
Humidity 83%
Rainfall 0.00 in
Snow Depth Not available.
UV 1 out of 12
Pollen 2.60 out of 12
Air Quality Not available.
Flu Activity Sporadic
METAR KRTN 221453Z AUTO 06006KT 10SM CLR 11/08 A3017 RMK AO2 SLP163 T01110083 53011

More Conditions Fewer Conditions

Pressure 30.01 in
Visibility 10.0 miles
Clouds Clear
Dew Point 47 °F
Humidity 83%
Rainfall 0.00 in
Snow Depth Not available.
UV 1 out of 12
Pollen 2.60 out of 12
Air Quality Not available.
Flu Activity Sporadic
METAR KRTN 221453Z AUTO 06006KT 10SM CLR 11/08 A3017 RMK AO2 SLP163 T01110083 53011

More Conditions Fewer Conditions

10-Day Weather Forecast

Almanac

Astronomy

Oct. 22, 2014 Rise Set
Actual Time 7:11 AM MDT 6:12 PM MDT
Civil Twilight 6:45 AM MDT 6:38 PM MDT
Nautical Twilight 6:15 AM MDT 7:09 PM MDT
Astronomical Twilight 5:45 AM MDT 7:38 PM MDT
Moon 5:57 AM MDT 5:39 PM MDT
Length of Visible Light 11h 53m
Length of Day
11h 00m
Tomorrow will be 2m 10s shorter.
Waning Crescent, 2% of the Moon is Illuminated
Today
Waning Crescent
Oct 23
New
Oct 30
First Quarter
Nov 6
Full
Nov 14
Last Quarter

Today's Extremes

State Highs State Lows

Community

WunderPhotos

Upload Photos

1,763,949 photos uploaded!

Nearby

Snow Depth

Station Depth Elevation
Tolby 0 in 10180 ft
Red River Pass #2 0 in 9850 ft
North Costilla 0 in 10600 ft
Gallegos Peak 0 in 9800 ft
Wesner Springs 3 in 11120 ft

Earthquake Activity

City Distance Mag. Time & Date
Trinidad, Colorado 43 miles 2.7 10:33 PM MDT
2014-10-20
Trinidad, Colorado 48 miles 2.5 10:01 PM MDT
2014-10-19
Minimum magnitude displayed is 2.5.

Coastal Water Temperatures

Place Temperature
No Stations Reporting

Nearby Weather Stations